Time;durP1;ratioP1;P1;durP2;ratioP2;P2;SDS_P1;SDS_P2;PMS_P1;PMS_P2;Temp;Humidity;BMP_temperature;BMP_pressure;BME280_temperature;BME280_humidity;BME280_pressure;Samples;Min_cycle;Max_cycle;Signal;HPM_P1;HPM_P2
2021/12/24 00:00:00;;;;;;;14.00;9.23;;;;;;;;;;5032796;28;20194;-68
2021/12/24 00:02:25;;;;;;;15.38;8.75;;;;;;;;;;5032572;28;20163;-67
2021/12/24 00:04:51;;;;;;;13.50;9.20;;;;;;;;;;5032210;28;20629;-66
2021/12/24 00:07:16;;;;;;;12.93;7.97;;;;;;;;;;5032677;28;20213;-67
2021/12/24 00:09:41;;;;;;;15.82;9.57;;;;;;;;;;5032458;28;20190;-67
2021/12/24 00:12:13;;;;;;;12.15;9.05;;;;;;;;;;5032968;28;20624;-67
2021/12/24 00:14:43;;;;;;;15.43;10.02;;;;;;;;;;5031997;28;20689;-67
2021/12/24 00:17:09;;;;;;;18.13;10.20;;;;;;;;;;5032102;28;20202;-67
2021/12/24 00:19:45;;;;;;;12.77;9.18;;;;;;;;;;5032236;28;20291;-68
2021/12/24 00:35:53;;;;;;;15.93;8.48;;;;;;;;;;5032210;28;20636;-66
2021/12/24 00:38:19;;;;;;;12.40;7.82;;;;;;;;;;5032060;28;20194;-67
2021/12/24 00:40:45;;;;;;;11.85;7.45;;;;;;;;;;5032077;28;20635;-67
2021/12/24 00:43:11;;;;;;;14.00;9.18;;;;;;;;;;5031784;28;20273;-67
2021/12/24 00:45:39;;;;;;;8.00;6.03;;;;;;;;;;5031789;28;20620;-66
2021/12/24 00:48:05;;;;;;;6.03;4.75;;;;;;;;;;5032020;28;20178;-67
2021/12/24 00:50:35;;;;;;;7.85;5.65;;;;;;;;;;5031774;28;20676;-67
2021/12/24 00:55:02;;;;;;;13.57;8.68;;;;;;;;;;5031672;28;20169;-67
2021/12/24 00:55:48;;;;;;;16.02;9.90;;;;;;;;;;5031706;28;20213;-67
2021/12/24 00:58:13;;;;;;;16.88;9.30;;;;;;;;;;5031630;28;20194;-67
2021/12/24 01:00:39;;;;;;;9.15;6.93;;;;;;;;;;5031883;28;20194;-67
2021/12/24 01:03:07;;;;;;;7.35;6.20;;;;;;;;;;5031876;28;20223;-67
2021/12/24 01:05:33;;;;;;;15.57;8.68;;;;;;;;;;5031617;28;20722;-67
2021/12/24 01:07:59;;;;;;;10.70;7.38;;;;;;;;;;5031532;28;20179;-67
2021/12/24 01:10:29;;;;;;;8.73;6.93;;;;;;;;;;5032160;28;20193;-67
2021/12/24 01:12:54;;;;;;;11.57;7.65;;;;;;;;;;5031553;28;20675;-67
2021/12/24 01:15:19;;;;;;;9.52;7.25;;;;;;;;;;5031434;28;20186;-67
2021/12/24 01:18:00;;;;;;;8.13;6.78;;;;;;;;;;5031698;28;20178;-67
2021/12/24 01:20:33;;;;;;;9.10;6.57;;;;;;;;;;5031514;28;20229;-67
2021/12/24 01:26:20;;;;;;;10.43;7.07;;;;;;;;;;5032294;28;20154;-67
2021/12/24 01:44:34;;;;;;;9.65;6.65;;;;;;;;;;5035417;28;20525;-66
2021/12/24 01:47:00;;;;;;;8.07;6.88;;;;;;;;;;5034764;28;20159;-68
2021/12/24 01:49:26;;;;;;;7.03;6.30;;;;;;;;;;5034803;28;20193;-67
2021/12/24 01:51:51;;;;;;;8.23;6.60;;;;;;;;;;5034660;28;20668;-67
2021/12/24 01:54:17;;;;;;;7.25;6.03;;;;;;;;;;5034651;28;20178;-68
2021/12/24 01:56:43;;;;;;;7.72;6.45;;;;;;;;;;5034589;28;20170;-67
2021/12/24 01:59:08;;;;;;;9.63;6.10;;;;;;;;;;5034416;28;20201;-67
2021/12/24 02:01:34;;;;;;;8.20;6.18;;;;;;;;;;5034527;28;20179;-67
2021/12/24 02:03:59;;;;;;;7.75;6.50;;;;;;;;;;5034446;28;20175;-67
2021/12/24 02:06:24;;;;;;;9.95;6.65;;;;;;;;;;5034414;28;20167;-67
2021/12/24 02:08:49;;;;;;;10.50;6.65;;;;;;;;;;5034394;28;20240;-67
2021/12/24 02:11:15;;;;;;;7.88;6.57;;;;;;;;;;5034308;28;20332;-68
2021/12/24 02:13:40;;;;;;;9.85;7.45;;;;;;;;;;5034296;28;20174;-67
2021/12/24 02:29:49;;;;;;;6.63;5.03;;;;;;;;;;5034601;28;20173;-67
2021/12/24 02:32:15;;;;;;;5.75;4.88;;;;;;;;;;5034222;28;20175;-67
2021/12/24 02:34:40;;;;;;;6.70;5.22;;;;;;;;;;5033799;28;20194;-67
2021/12/24 02:37:05;;;;;;;5.30;4.78;;;;;;;;;;5034113;28;20174;-67
2021/12/24 02:39:30;;;;;;;5.68;4.47;;;;;;;;;;5033726;28;20198;-66
2021/12/24 02:41:57;;;;;;;5.50;5.00;;;;;;;;;;5033822;28;20182;-67
2021/12/24 02:44:22;;;;;;;6.20;5.25;;;;;;;;;;5034040;28;20658;-67
2021/12/24 02:53:55;;;;;;;7.25;5.70;;;;;;;;;;5034520;28;20159;-67
2021/12/24 02:55:08;;;;;;;7.70;5.25;;;;;;;;;;5051382;28;20182;-68
2021/12/24 02:57:35;;;;;;;7.97;5.80;;;;;;;;;;5051900;28;20249;-67
2021/12/24 03:00:06;;;;;;;6.38;5.47;;;;;;;;;;5042790;28;20700;-67
2021/12/24 03:02:32;;;;;;;9.88;5.93;;;;;;;;;;5033709;28;20193;-67
2021/12/24 03:04:58;;;;;;;8.23;6.30;;;;;;;;;;5033582;28;20620;-67
2021/12/24 03:07:23;;;;;;;9.25;6.13;;;;;;;;;;5033536;28;20232;-67
2021/12/24 03:09:49;;;;;;;11.48;6.47;;;;;;;;;;5033241;28;20167;-67
2021/12/24 03:12:14;;;;;;;7.60;6.38;;;;;;;;;;5033193;28;20167;-67
2021/12/24 03:14:39;;;;;;;8.57;6.68;;;;;;;;;;5033089;28;20190;-67
2021/12/24 03:17:10;;;;;;;9.27;6.82;;;;;;;;;;5033372;28;20174;-67
2021/12/24 03:19:35;;;;;;;8.60;6.05;;;;;;;;;;5033296;28;20194;-67
2021/12/24 03:24:46;;;;;;;8.27;5.93;;;;;;;;;;5041998;28;20317;-67
2021/12/24 03:27:12;;;;;;;9.48;6.75;;;;;;;;;;5032911;28;20787;-67
2021/12/24 03:29:38;;;;;;;10.07;6.70;;;;;;;;;;5033137;28;20185;-67
2021/12/24 03:32:03;;;;;;;7.22;6.38;;;;;;;;;;5033126;28;20178;-67
2021/12/24 03:34:29;;;;;;;7.50;6.50;;;;;;;;;;5032852;28;20190;-67
2021/12/24 03:36:54;;;;;;;7.70;6.65;;;;;;;;;;5032793;28;20178;-67
2021/12/24 03:39:19;;;;;;;8.57;6.05;;;;;;;;;;5032854;28;20206;-67
2021/12/24 03:41:45;;;;;;;10.57;7.35;;;;;;;;;;5032925;28;20174;-67
2021/12/24 03:44:12;;;;;;;10.50;7.63;;;;;;;;;;5032893;28;20224;-67
2021/12/24 03:46:59;;;;;;;11.00;7.63;;;;;;;;;;5032816;28;20178;-67
2021/12/24 03:49:38;;;;;;;12.40;7.60;;;;;;;;;;5032851;28;20598;-67
2021/12/24 03:54:58;;;;;;;9.55;6.50;;;;;;;;;;5033007;28;20161;-67
2021/12/24 03:57:24;;;;;;;8.80;6.35;;;;;;;;;;5032393;28;20168;-67
2021/12/24 03:59:49;;;;;;;5.60;4.80;;;;;;;;;;5032555;28;20194;-67
2021/12/24 04:02:14;;;;;;;5.55;4.60;;;;;;;;;;5030738;28;20170;-68
2021/12/24 04:04:40;;;;;;;5.82;4.82;;;;;;;;;;5032225;28;20184;-67
2021/12/24 04:07:06;;;;;;;6.10;4.40;;;;;;;;;;5032777;28;20170;-67
2021/12/24 04:09:32;;;;;;;5.10;4.57;;;;;;;;;;5032486;28;20201;-67
2021/12/24 04:11:58;;;;;;;3.97;3.55;;;;;;;;;;5032146;28;20182;-67
2021/12/24 04:14:23;;;;;;;5.20;4.40;;;;;;;;;;5032352;28;20345;-67
2021/12/24 04:16:48;;;;;;;5.95;5.38;;;;;;;;;;5032175;28;20178;-67
2021/12/24 04:27:24;;;;;;;7.38;5.88;;;;;;;;;;5041791;28;20190;-66
2021/12/24 04:29:50;;;;;;;10.85;6.60;;;;;;;;;;5031973;28;20181;-67
2021/12/24 04:32:19;;;;;;;8.13;6.25;;;;;;;;;;5031954;28;20656;-67
2021/12/24 04:34:49;;;;;;;8.85;6.05;;;;;;;;;;5031796;28;20206;-67
2021/12/24 04:51:13;;;;;;;9.25;6.70;;;;;;;;;;5032086;28;20204;-67
2021/12/24 05:04:16;;;;;;;10.73;6.85;;;;;;;;;;5032072;28;20649;-67
2021/12/24 05:06:51;;;;;;;12.20;8.50;;;;;;;;;;5031902;28;20170;-67
2021/12/24 05:09:22;;;;;;;14.00;8.45;;;;;;;;;;5031636;28;20569;-67
2021/12/24 05:11:47;;;;;;;9.00;7.10;;;;;;;;;;5031568;28;20600;-67
2021/12/24 05:14:15;;;;;;;12.43;7.20;;;;;;;;;;5032842;28;20226;-67
2021/12/24 05:16:46;;;;;;;12.88;6.97;;;;;;;;;;5035347;28;20663;-67
2021/12/24 05:21:42;;;;;;;5.78;5.03;;;;;;;;;;5035310;28;20225;-67
2021/12/24 05:24:09;;;;;;;8.63;5.43;;;;;;;;;;5035232;28;20166;-67
2021/12/24 05:26:35;;;;;;;6.53;5.80;;;;;;;;;;5035203;28;20181;-66
2021/12/24 05:29:01;;;;;;;9.05;6.78;;;;;;;;;;5035353;28;20221;-67
2021/12/24 05:31:26;;;;;;;9.35;6.97;;;;;;;;;;5033879;28;20221;-67
2021/12/24 05:33:52;;;;;;;10.27;6.93;;;;;;;;;;5035223;28;20222;-67
2021/12/24 05:36:17;;;;;;;7.93;6.68;;;;;;;;;;5035039;28;20174;-68
2021/12/24 05:38:43;;;;;;;9.85;7.35;;;;;;;;;;5034926;28;20691;-68
2021/12/24 05:41:10;;;;;;;11.82;8.35;;;;;;;;;;5035085;28;20203;-67
2021/12/24 05:43:36;;;;;;;13.68;8.60;;;;;;;;;;5034889;28;20174;-67
2021/12/24 05:46:01;;;;;;;12.65;7.93;;;;;;;;;;5034816;28;20174;-68
2021/12/24 05:48:27;;;;;;;10.68;8.15;;;;;;;;;;5035040;28;20233;-67
2021/12/24 05:50:52;;;;;;;13.35;7.95;;;;;;;;;;5035305;28;20181;-67
2021/12/24 05:53:17;;;;;;;15.85;10.05;;;;;;;;;;5034692;28;20249;-67
2021/12/24 05:55:42;;;;;;;12.05;8.50;;;;;;;;;;5035481;28;20206;-67
2021/12/24 05:58:08;;;;;;;12.90;8.68;;;;;;;;;;5034517;28;20555;-68
2021/12/24 06:00:35;;;;;;;17.77;12.00;;;;;;;;;;5034544;28;20223;-67
2021/12/24 06:03:01;;;;;;;15.93;10.55;;;;;;;;;;5034459;28;20178;-67
2021/12/24 06:05:26;;;;;;;15.85;9.77;;;;;;;;;;5034745;28;20181;-67
2021/12/24 06:07:51;;;;;;;12.38;8.93;;;;;;;;;;5034461;28;20179;-67
2021/12/24 06:10:17;;;;;;;14.00;9.88;;;;;;;;;;5034409;28;20592;-67
2021/12/24 06:12:42;;;;;;;14.65;10.68;;;;;;;;;;5034337;28;20174;-68
2021/12/24 06:15:08;;;;;;;23.90;16.10;;;;;;;;;;5034161;28;20249;-67
2021/12/24 06:17:36;;;;;;;22.35;14.10;;;;;;;;;;5034529;28;20224;-67
2021/12/24 06:20:03;;;;;;;27.95;16.17;;;;;;;;;;5034085;28;20202;-67
2021/12/24 06:22:28;;;;;;;20.23;13.38;;;;;;;;;;5034448;28;20182;-67
2021/12/24 06:24:53;;;;;;;19.90;13.57;;;;;;;;;;5034166;28;20575;-67
2021/12/24 06:27:18;;;;;;;20.58;13.07;;;;;;;;;;5034125;28;20171;-67
2021/12/24 06:29:44;;;;;;;18.50;11.05;;;;;;;;;;5034250;28;20178;-67
2021/12/24 06:32:09;;;;;;;26.48;15.57;;;;;;;;;;5033934;28;20174;-66
2021/12/24 06:34:34;;;;;;;29.25;13.00;;;;;;;;;;5033722;28;20266;-67
2021/12/24 06:37:00;;;;;;;25.55;13.57;;;;;;;;;;5033826;28;20174;-67
2021/12/24 06:39:25;;;;;;;24.50;13.82;;;;;;;;;;5033730;28;20202;-69
2021/12/24 06:41:50;;;;;;;24.23;13.65;;;;;;;;;;5034087;28;20182;-66
2021/12/24 06:44:16;;;;;;;36.75;20.20;;;;;;;;;;5033780;28;20595;-67
2021/12/24 06:46:42;;;;;;;25.52;14.13;;;;;;;;;;5034014;28;20193;-67
2021/12/24 06:49:08;;;;;;;41.63;19.80;;;;;;;;;;5033656;28;20632;-68
2021/12/24 06:51:33;;;;;;;37.72;20.20;;;;;;;;;;5033818;28;20182;-67
2021/12/24 06:53:59;;;;;;;41.33;22.50;;;;;;;;;;5033750;28;20236;-67
2021/12/24 06:56:25;;;;;;;47.85;24.40;;;;;;;;;;5033552;28;20175;-67
2021/12/24 06:58:50;;;;;;;53.60;27.77;;;;;;;;;;5032989;28;20198;-67
2021/12/24 07:01:15;;;;;;;67.38;34.15;;;;;;;;;;5033726;28;20167;-69
2021/12/24 07:03:41;;;;;;;47.05;25.63;;;;;;;;;;5033310;28;20178;-67
2021/12/24 07:06:07;;;;;;;56.03;29.13;;;;;;;;;;5033606;28;20206;-68
2021/12/24 07:08:32;;;;;;;63.30;33.35;;;;;;;;;;5033257;28;20186;-68
2021/12/24 07:10:58;;;;;;;68.47;34.22;;;;;;;;;;5033505;28;20227;-67
2021/12/24 07:13:24;;;;;;;84.90;37.33;;;;;;;;;;5033395;28;20232;-66
2021/12/24 07:15:49;;;;;;;108.07;43.17;;;;;;;;;;5032974;28;20730;-66
2021/12/24 07:18:15;;;;;;;103.38;42.35;;;;;;;;;;5032990;28;20167;-67
2021/12/24 07:20:40;;;;;;;89.10;42.22;;;;;;;;;;5033329;28;20167;-67
2021/12/24 07:23:05;;;;;;;93.43;43.28;;;;;;;;;;5033275;28;20171;-67
2021/12/24 07:25:31;;;;;;;89.60;41.88;;;;;;;;;;5033236;28;20174;-67
2021/12/24 07:27:56;;;;;;;87.07;41.65;;;;;;;;;;5032917;28;20166;-67
2021/12/24 07:30:22;;;;;;;78.90;39.53;;;;;;;;;;5032829;28;20181;-66
2021/12/24 07:32:48;;;;;;;66.55;34.67;;;;;;;;;;5032826;28;20224;-66
2021/12/24 07:35:13;;;;;;;85.88;39.95;;;;;;;;;;5032592;28;20241;-66
2021/12/24 07:37:39;;;;;;;72.95;38.47;;;;;;;;;;5032407;28;20166;-67
2021/12/24 07:40:05;;;;;;;71.95;38.97;;;;;;;;;;5032582;28;20595;-67
2021/12/24 07:42:31;;;;;;;65.78;36.30;;;;;;;;;;5032890;28;20181;-66
2021/12/24 07:44:56;;;;;;;73.10;39.00;;;;;;;;;;5032106;28;20639;-67
2021/12/24 07:47:28;;;;;;;80.00;40.25;;;;;;;;;;5032343;28;20215;-66
2021/12/24 07:50:01;;;;;;;84.20;40.70;;;;;;;;;;5032804;28;20183;-67
2021/12/24 07:52:27;;;;;;;72.75;39.92;;;;;;;;;;5032764;28;20652;-66
2021/12/24 07:54:54;;;;;;;80.03;41.78;;;;;;;;;;5032468;28;20170;-66
2021/12/24 07:57:20;;;;;;;76.05;39.30;;;;;;;;;;5032615;28;20179;-66
2021/12/24 07:59:46;;;;;;;106.03;46.38;;;;;;;;;;5032336;28;20198;-66
2021/12/24 08:02:16;;;;;;;84.10;42.80;;;;;;;;;;5032311;28;20170;-67
2021/12/24 08:04:45;;;;;;;69.93;35.00;;;;;;;;;;5032457;28;20158;-67
2021/12/24 08:07:11;;;;;;;63.50;31.85;;;;;;;;;;5031005;28;20623;-67
2021/12/24 08:09:37;;;;;;;49.17;28.77;;;;;;;;;;5032243;28;20289;-67
2021/12/24 08:12:04;;;;;;;51.72;31.02;;;;;;;;;;5032209;28;20660;-67
2021/12/24 08:14:30;;;;;;;56.70;31.85;;;;;;;;;;5032021;28;20205;-67
2021/12/24 08:16:55;;;;;;;49.92;29.33;;;;;;;;;;5032108;28;20170;-68
2021/12/24 08:19:20;;;;;;;52.15;26.60;;;;;;;;;;5032274;28;20240;-68
2021/12/24 08:21:46;;;;;;;49.67;26.73;;;;;;;;;;5032055;28;20198;-67
2021/12/24 08:24:11;;;;;;;47.78;26.35;;;;;;;;;;5032335;28;20171;-67
2021/12/24 08:26:36;;;;;;;42.90;24.02;;;;;;;;;;5031826;28;20674;-66
2021/12/24 08:29:02;;;;;;;44.03;24.73;;;;;;;;;;5031749;28;20170;-67
2021/12/24 08:31:27;;;;;;;44.67;23.50;;;;;;;;;;5032099;28;20214;-66
2021/12/24 08:33:52;;;;;;;58.92;31.15;;;;;;;;;;5031867;28;20226;-66
2021/12/24 08:36:18;;;;;;;55.42;29.80;;;;;;;;;;5031279;28;20171;-67
2021/12/24 08:38:43;;;;;;;61.65;32.72;;;;;;;;;;5031802;28;20276;-67
2021/12/24 08:41:08;;;;;;;58.63;31.20;;;;;;;;;;5032102;28;20178;-66
2021/12/24 08:43:34;;;;;;;52.28;31.08;;;;;;;;;;5032138;28;20175;-67
2021/12/24 08:45:59;;;;;;;52.83;30.38;;;;;;;;;;5031850;28;20166;-67
2021/12/24 08:48:24;;;;;;;45.17;28.45;;;;;;;;;;5033802;28;20173;-67
2021/12/24 08:50:50;;;;;;;44.85;26.05;;;;;;;;;;5035858;28;20177;-67
2021/12/24 08:53:15;;;;;;;48.58;28.25;;;;;;;;;;5036043;28;20243;-67
2021/12/24 08:55:40;;;;;;;40.08;22.80;;;;;;;;;;5036031;28;20209;-67
2021/12/24 08:58:06;;;;;;;32.28;21.50;;;;;;;;;;5035774;28;20647;-66
2021/12/24 09:00:32;;;;;;;37.70;21.33;;;;;;;;;;5035628;28;20182;-67
2021/12/24 09:02:57;;;;;;;34.90;22.77;;;;;;;;;;5035921;28;20177;-67
2021/12/24 09:05:23;;;;;;;87.10;38.05;;;;;;;;;;5036069;28;20170;-66
2021/12/24 09:07:49;;;;;;;63.95;33.85;;;;;;;;;;5035548;28;20174;-67
2021/12/24 09:10:14;;;;;;;125.78;45.97;;;;;;;;;;5035549;28;20255;-66
2021/12/24 09:12:43;;;;;;;127.20;48.42;;;;;;;;;;5035474;28;20715;-67
2021/12/24 09:15:08;;;;;;;88.38;38.80;;;;;;;;;;5035612;28;20578;-67
2021/12/24 09:17:34;;;;;;;78.43;35.90;;;;;;;;;;5035632;28;20173;-68
2021/12/24 09:19:59;;;;;;;53.15;30.52;;;;;;;;;;5035553;28;20205;-67
2021/12/24 09:22:31;;;;;;;66.78;30.92;;;;;;;;;;5035550;28;20174;-67
2021/12/24 09:24:56;;;;;;;59.15;33.20;;;;;;;;;;5035268;28;20151;-67
2021/12/24 09:27:22;;;;;;;66.80;32.20;;;;;;;;;;5035749;28;20216;-67
2021/12/24 09:29:47;;;;;;;54.65;31.08;;;;;;;;;;5035150;28;20671;-67
2021/12/24 09:32:13;;;;;;;63.92;32.38;;;;;;;;;;5035121;28;20644;-67
2021/12/24 09:34:38;;;;;;;45.22;28.98;;;;;;;;;;5035078;28;20217;-67
2021/12/24 09:37:04;;;;;;;56.67;31.40;;;;;;;;;;5035019;28;20167;-68
2021/12/24 09:39:29;;;;;;;49.47;29.23;;;;;;;;;;5035174;28;20212;-67
2021/12/24 09:41:54;;;;;;;44.42;25.67;;;;;;;;;;5034895;28;20202;-68
2021/12/24 09:44:19;;;;;;;47.65;27.27;;;;;;;;;;5034878;28;20158;-67
2021/12/24 09:46:45;;;;;;;53.13;29.15;;;;;;;;;;5034807;28;20162;-68
2021/12/24 09:49:11;;;;;;;49.45;29.65;;;;;;;;;;5034795;28;20176;-67
2021/12/24 09:51:38;;;;;;;57.95;34.30;;;;;;;;;;5034776;28;20257;-68
2021/12/24 09:54:08;;;;;;;58.75;34.88;;;;;;;;;;5034645;28;20683;-68
2021/12/24 09:56:33;;;;;;;49.83;30.92;;;;;;;;;;5035006;28;20171;-68
2021/12/24 09:58:59;;;;;;;57.72;33.08;;;;;;;;;;5034820;28;20194;-67
2021/12/24 10:01:34;;;;;;;61.80;36.05;;;;;;;;;;5034048;28;20171;-66
2021/12/24 10:04:05;;;;;;;59.88;33.42;;;;;;;;;;5034763;28;20162;-67
2021/12/24 10:06:30;;;;;;;54.45;31.70;;;;;;;;;;5034480;28;20626;-68
2021/12/24 10:09:09;;;;;;;54.80;31.02;;;;;;;;;;5034688;28;20261;-66
2021/12/24 10:11:50;;;;;;;54.97;31.50;;;;;;;;;;5034611;28;20543;-66
2021/12/24 10:14:19;;;;;;;47.33;28.45;;;;;;;;;;5035086;28;20268;-67
2021/12/24 10:16:45;;;;;;;57.50;30.38;;;;;;;;;;5034498;28;20248;-67
2021/12/24 10:19:10;;;;;;;52.42;29.85;;;;;;;;;;5034169;28;20265;-68
2021/12/24 10:21:36;;;;;;;47.40;29.95;;;;;;;;;;5034166;28;20652;-67
2021/12/24 10:24:23;;;;;;;51.55;30.20;;;;;;;;;;5034175;28;20249;-67
2021/12/24 10:26:49;;;;;;;49.67;29.20;;;;;;;;;;5034374;28;20229;-67
2021/12/24 10:29:19;;;;;;;75.07;43.08;;;;;;;;;;5034023;28;20162;-66
2021/12/24 10:31:48;;;;;;;50.95;30.13;;;;;;;;;;5033959;28;20177;-66
2021/12/24 10:34:16;;;;;;;52.22;30.55;;;;;;;;;;5034023;28;20190;-68
2021/12/24 10:36:59;;;;;;;59.85;32.22;;;;;;;;;;5034180;28;20185;-68
2021/12/24 10:39:24;;;;;;;53.00;31.48;;;;;;;;;;5034367;28;20656;-67
2021/12/24 10:41:51;;;;;;;55.95;32.70;;;;;;;;;;5032470;28;20177;-67
2021/12/24 10:44:16;;;;;;;55.97;32.95;;;;;;;;;;5033777;28;20170;-65
2021/12/24 10:46:55;;;;;;;61.33;31.88;;;;;;;;;;5033996;28;20166;-66
2021/12/24 10:49:35;;;;;;;63.22;34.65;;;;;;;;;;5034273;28;20596;-67
2021/12/24 10:52:12;;;;;;;61.63;33.53;;;;;;;;;;5033900;28;20158;-67
2021/12/24 10:55:13;;;;;;;66.60;36.47;;;;;;;;;;5033837;28;20266;-67
2021/12/24 10:57:40;;;;;;;60.22;37.13;;;;;;;;;;5031484;28;20173;-67
2021/12/24 11:00:26;;;;;;;61.35;34.42;;;;;;;;;;5033001;28;20654;-67
2021/12/24 11:02:56;;;;;;;61.72;38.42;;;;;;;;;;5033713;28;20163;-68
2021/12/24 11:05:30;;;;;;;77.85;41.88;;;;;;;;;;5033588;28;20197;-67
2021/12/24 11:07:56;;;;;;;54.88;33.72;;;;;;;;;;5033282;28;20220;-67
2021/12/24 11:10:30;;;;;;;55.45;33.38;;;;;;;;;;5033236;28;20261;-67
2021/12/24 11:13:02;;;;;;;53.47;32.70;;;;;;;;;;5032651;28;20633;-67
2021/12/24 11:15:32;;;;;;;58.30;32.30;;;;;;;;;;5033155;28;20201;-67
2021/12/24 11:17:59;;;;;;;60.83;33.75;;;;;;;;;;5033319;28;20285;-67
2021/12/24 11:20:25;;;;;;;55.78;33.67;;;;;;;;;;5033221;28;20256;-66
2021/12/24 11:22:56;;;;;;;54.92;34.42;;;;;;;;;;5033000;28;20714;-66
2021/12/24 11:25:23;;;;;;;54.15;31.92;;;;;;;;;;5032901;28;20235;-67
2021/12/24 11:27:48;;;;;;;57.15;32.53;;;;;;;;;;5032906;28;20202;-67
2021/12/24 11:30:15;;;;;;;49.60;30.83;;;;;;;;;;5032813;28;20178;-67
2021/12/24 11:32:40;;;;;;;43.10;28.88;;;;;;;;;;5032794;28;20734;-66
2021/12/24 11:35:06;;;;;;;47.45;28.17;;;;;;;;;;5032860;28;20281;-66
2021/12/24 11:37:31;;;;;;;54.00;29.52;;;;;;;;;;5032988;28;20170;-66
2021/12/24 11:39:57;;;;;;;52.58;28.92;;;;;;;;;;5032912;28;20243;-67
2021/12/24 11:42:23;;;;;;;48.20;27.70;;;;;;;;;;5032914;28;20182;-67
2021/12/24 11:44:49;;;;;;;50.00;27.67;;;;;;;;;;5032606;28;20171;-66
2021/12/24 11:47:14;;;;;;;46.42;28.27;;;;;;;;;;5032622;28;20241;-67
2021/12/24 11:49:40;;;;;;;45.67;27.30;;;;;;;;;;5032544;28;20170;-67
2021/12/24 11:52:05;;;;;;;62.53;33.90;;;;;;;;;;5032446;28;20162;-67
2021/12/24 11:54:31;;;;;;;51.13;29.48;;;;;;;;;;5032522;28;20261;-67
2021/12/24 11:56:58;;;;;;;47.72;28.88;;;;;;;;;;5032467;28;20550;-67
2021/12/24 11:59:36;;;;;;;44.13;27.33;;;;;;;;;;5032464;28;20202;-67
2021/12/24 12:02:01;;;;;;;42.30;26.65;;;;;;;;;;5032609;28;20174;-67
2021/12/24 12:04:26;;;;;;;49.50;27.83;;;;;;;;;;5033081;28;20186;-67
2021/12/24 12:06:52;;;;;;;45.67;29.30;;;;;;;;;;5032338;28;20173;-66
2021/12/24 12:09:17;;;;;;;55.60;29.90;;;;;;;;;;5032235;28;20228;-66
2021/12/24 12:11:43;;;;;;;51.70;30.73;;;;;;;;;;5032479;28;20167;-66
2021/12/24 12:14:15;;;;;;;53.58;31.05;;;;;;;;;;5032382;28;20205;-66
2021/12/24 12:16:43;;;;;;;50.75;29.83;;;;;;;;;;5032345;28;20253;-67
2021/12/24 12:19:27;;;;;;;57.83;30.45;;;;;;;;;;5032332;28;20573;-67
2021/12/24 12:27:27;;;;;;;55.90;32.03;;;;;;;;;;5032039;28;20205;-67
2021/12/24 12:29:52;;;;;;;52.42;31.77;;;;;;;;;;5032326;28;20186;-68
2021/12/24 12:32:17;;;;;;;52.92;30.33;;;;;;;;;;5031950;28;20606;-68
2021/12/24 12:34:42;;;;;;;52.85;31.40;;;;;;;;;;5031923;28;20190;-66
2021/12/24 12:37:20;;;;;;;49.47;29.80;;;;;;;;;;5032174;28;20170;-66
2021/12/24 12:39:47;;;;;;;52.55;31.50;;;;;;;;;;5031853;28;20260;-67
2021/12/24 12:42:16;;;;;;;38.90;24.63;;;;;;;;;;5031790;28;20181;-67
2021/12/24 12:44:45;;;;;;;45.55;26.38;;;;;;;;;;5030605;28;20606;-66
2021/12/24 12:47:19;;;;;;;44.92;27.17;;;;;;;;;;5031839;28;20171;-66
2021/12/24 12:49:45;;;;;;;34.92;21.60;;;;;;;;;;5032081;28;20178;-66
2021/12/24 12:52:20;;;;;;;39.60;23.40;;;;;;;;;;5032064;28;20617;-67
2021/12/24 12:54:56;;;;;;;52.33;28.95;;;;;;;;;;5031730;28;20185;-67
2021/12/24 12:57:21;;;;;;;59.15;32.35;;;;;;;;;;5032018;28;20556;-66
2021/12/24 13:00:05;;;;;;;56.78;32.35;;;;;;;;;;5031633;28;20198;-67
2021/12/24 13:02:49;;;;;;;51.13;29.55;;;;;;;;;;5031670;28;20177;-67
2021/12/24 13:05:14;;;;;;;48.05;27.27;;;;;;;;;;5031933;28;20198;-67
2021/12/24 13:07:39;;;;;;;50.47;28.50;;;;;;;;;;5031649;28;20198;-67
2021/12/24 13:10:05;;;;;;;49.83;27.52;;;;;;;;;;5031863;28;20262;-67
2021/12/24 13:12:30;;;;;;;48.35;27.40;;;;;;;;;;5031637;28;20202;-67
2021/12/24 13:14:59;;;;;;;43.60;26.77;;;;;;;;;;5031809;28;20198;-66
2021/12/24 13:17:31;;;;;;;47.60;26.60;;;;;;;;;;5031451;28;20202;-66
2021/12/24 13:20:10;;;;;;;37.53;23.45;;;;;;;;;;5031534;28;20182;-67
2021/12/24 13:22:37;;;;;;;37.03;21.85;;;;;;;;;;5031516;28;20165;-66
2021/12/24 13:25:14;;;;;;;34.05;21.58;;;;;;;;;;5031721;28;20244;-66
2021/12/24 13:27:44;;;;;;;30.55;21.40;;;;;;;;;;5031387;28;20167;-67
2021/12/24 13:30:20;;;;;;;41.03;23.60;;;;;;;;;;5031650;28;20236;-66
2021/12/24 13:32:47;;;;;;;37.92;21.77;;;;;;;;;;5031714;28;20170;-66
2021/12/24 13:35:13;;;;;;;36.08;21.25;;;;;;;;;;5032474;28;20598;-67
2021/12/24 13:37:45;;;;;;;30.67;20.77;;;;;;;;;;5035013;28;20178;-66
2021/12/24 13:40:10;;;;;;;36.67;23.58;;;;;;;;;;5035705;28;20187;-66
2021/12/24 13:42:47;;;;;;;37.50;22.50;;;;;;;;;;5034961;28;20169;-67
2021/12/24 13:45:12;;;;;;;37.33;22.52;;;;;;;;;;5035387;28;20610;-66
2021/12/24 13:55:30;;;;;;;48.42;27.85;;;;;;;;;;5035559;28;20284;-66
2021/12/24 13:57:56;;;;;;;52.47;31.85;;;;;;;;;;5034709;28;20171;-66
2021/12/24 14:00:22;;;;;;;50.50;31.58;;;;;;;;;;5035581;28;20213;-66
2021/12/24 14:02:51;;;;;;;53.33;32.75;;;;;;;;;;5034575;28;20593;-67
2021/12/24 14:05:18;;;;;;;52.55;32.47;;;;;;;;;;5034667;28;20167;-67
2021/12/24 14:07:46;;;;;;;54.22;34.55;;;;;;;;;;5034740;28;20174;-66
2021/12/24 14:10:22;;;;;;;52.03;31.23;;;;;;;;;;5034702;28;20185;-67
2021/12/24 14:12:47;;;;;;;36.65;24.23;;;;;;;;;;5034641;28;20202;-67
2021/12/24 14:15:14;;;;;;;38.13;24.63;;;;;;;;;;5034232;28;20678;-67
2021/12/24 14:18:05;;;;;;;36.25;21.98;;;;;;;;;;5034219;28;20214;-67
2021/12/24 14:23:17;;;;;;;39.25;23.98;;;;;;;;;;5034770;28;20648;-68
2021/12/24 14:25:59;;;;;;;28.63;19.50;;;;;;;;;;5034155;28;20166;-67
2021/12/24 14:28:25;;;;;;;16.75;11.82;;;;;;;;;;5034308;28;20555;-67
2021/12/24 14:31:00;;;;;;;16.63;10.90;;;;;;;;;;5033979;28;20167;-67
2021/12/24 14:33:26;;;;;;;6.20;4.30;;;;;;;;;;5034438;28;20166;-67
2021/12/24 14:35:52;;;;;;;5.75;4.32;;;;;;;;;;5034017;28;20626;-67
2021/12/24 14:38:22;;;;;;;4.60;3.40;;;;;;;;;;5034159;28;20265;-68
2021/12/24 14:40:54;;;;;;;8.07;5.70;;;;;;;;;;5034043;28;20214;-67
2021/12/24 14:43:20;;;;;;;9.95;5.82;;;;;;;;;;5034125;28;20536;-66
2021/12/24 14:45:46;;;;;;;9.98;6.50;;;;;;;;;;5033917;28;20181;-67
2021/12/24 14:48:15;;;;;;;9.98;5.97;;;;;;;;;;5034005;28;20221;-67
2021/12/24 14:50:50;;;;;;;9.50;4.82;;;;;;;;;;5033667;28;20652;-67
2021/12/24 14:53:18;;;;;;;18.23;12.25;;;;;;;;;;5033661;28;20304;-67
2021/12/24 14:55:46;;;;;;;9.18;7.05;;;;;;;;;;5044131;28;20647;-66
2021/12/24 14:58:11;;;;;;;15.98;10.43;;;;;;;;;;5053671;28;20174;-66
2021/12/24 15:00:41;;;;;;;23.27;14.98;;;;;;;;;;5052199;28;20190;-66
2021/12/24 15:03:09;;;;;;;24.77;15.68;;;;;;;;;;5053386;28;20158;-66
2021/12/24 15:05:36;;;;;;;7.80;5.60;;;;;;;;;;5053554;28;20239;-67
2021/12/24 15:08:10;;;;;;;11.93;8.82;;;;;;;;;;5053294;28;20166;-66
2021/12/24 15:10:35;;;;;;;9.45;5.32;;;;;;;;;;5053581;28;20158;-67
2021/12/24 15:13:10;;;;;;;12.68;6.65;;;;;;;;;;5053160;28;20636;-67
2021/12/24 15:15:35;;;;;;;6.28;4.85;;;;;;;;;;5053095;28;20709;-67
2021/12/24 15:18:00;;;;;;;4.53;3.92;;;;;;;;;;5053031;28;20174;-66
2021/12/24 15:20:28;;;;;;;5.85;4.47;;;;;;;;;;5052918;28;20190;-66
2021/12/24 15:22:53;;;;;;;13.43;7.10;;;;;;;;;;5053211;28;20185;-66
2021/12/24 15:25:19;;;;;;;6.95;5.03;;;;;;;;;;5044980;28;20566;-66
2021/12/24 15:27:44;;;;;;;5.03;4.32;;;;;;;;;;5042476;28;20178;-67
2021/12/24 15:30:10;;;;;;;4.13;3.83;;;;;;;;;;5051346;28;20178;-67
2021/12/24 15:32:36;;;;;;;4.05;3.65;;;;;;;;;;5051510;28;20189;-66
2021/12/24 15:35:02;;;;;;;10.40;7.43;;;;;;;;;;5052647;28;20198;-67
2021/12/24 15:37:27;;;;;;;41.45;25.35;;;;;;;;;;5052642;28;20691;-67
2021/12/24 15:39:53;;;;;;;71.28;42.83;;;;;;;;;;5052538;28;20215;-66
2021/12/24 15:42:19;;;;;;;85.03;47.28;;;;;;;;;;5052556;28;20193;-67
2021/12/24 15:44:47;;;;;;;69.68;41.00;;;;;;;;;;5052546;28;20196;-66
2021/12/24 15:47:13;;;;;;;63.53;36.10;;;;;;;;;;5052473;28;20166;-66
2021/12/24 15:49:38;;;;;;;79.28;44.78;;;;;;;;;;5052444;28;20666;-67
2021/12/24 15:52:04;;;;;;;49.90;30.83;;;;;;;;;;5052473;28;20223;-67
2021/12/24 15:54:30;;;;;;;49.65;29.67;;;;;;;;;;5052275;28;20231;-67
2021/12/24 15:56:55;;;;;;;44.25;27.30;;;;;;;;;;5052555;28;20184;-67
2021/12/24 15:59:20;;;;;;;26.98;16.95;;;;;;;;;;5051754;28;20193;-67
2021/12/24 16:01:45;;;;;;;9.98;7.07;;;;;;;;;;5052796;28;20697;-67
2021/12/24 16:04:11;;;;;;;8.00;5.30;;;;;;;;;;5052512;28;20232;-67
2021/12/24 16:06:36;;;;;;;6.03;5.10;;;;;;;;;;5052246;28;20170;-68
2021/12/24 16:09:01;;;;;;;26.38;17.58;;;;;;;;;;5052639;28;20185;-67
2021/12/24 16:11:26;;;;;;;16.88;11.27;;;;;;;;;;5052107;28;20174;-66
2021/12/24 16:13:52;;;;;;;31.90;22.10;;;;;;;;;;5052026;28;20631;-67
2021/12/24 16:16:23;;;;;;;28.55;19.10;;;;;;;;;;5052266;28;20181;-67